createdAt,value
2018-12-03T00:00:45.939Z,16.7
2018-12-03T00:01:47.225Z,16.7
2018-12-03T00:02:51.136Z,16.6
2018-12-03T00:03:52.444Z,16.6
2018-12-03T00:04:53.814Z,16.6
2018-12-03T00:05:55.149Z,16.6
2018-12-03T00:06:57.377Z,16.5
2018-12-03T00:07:58.756Z,16.5
2018-12-03T00:09:02.518Z,16.6
2018-12-03T00:10:03.810Z,16.6
2018-12-03T00:11:05.188Z,16.6
2018-12-03T00:12:06.474Z,16.6
2018-12-03T00:13:07.771Z,16.5
2018-12-03T00:14:12.220Z,16.5
2018-12-03T00:15:13.520Z,16.4
2018-12-03T00:16:14.992Z,16.5
2018-12-03T00:17:16.274Z,16.5
2018-12-03T00:18:17.563Z,16.5
2018-12-03T00:19:18.849Z,16.5
2018-12-03T00:20:20.161Z,16.5
2018-12-03T00:21:21.489Z,16.5
2018-12-03T00:22:25.398Z,16.5
2018-12-03T00:23:26.757Z,16.5
2018-12-03T00:24:28.065Z,16.4
2018-12-03T00:25:29.612Z,16.4
2018-12-03T00:26:30.957Z,16.4
2018-12-03T00:27:32.242Z,16.3
2018-12-03T00:28:33.533Z,16.3
2018-12-03T00:29:34.834Z,16.5
2018-12-03T00:30:36.133Z,16.5
2018-12-03T00:32:46.130Z,16.4
2018-12-03T00:33:47.427Z,16.4
2018-12-03T00:34:48.736Z,16.4
2018-12-03T00:35:50.060Z,16.4
2018-12-03T00:36:51.398Z,16.4
2018-12-03T00:37:52.686Z,16.4
2018-12-03T00:38:54.014Z,16.4
2018-12-03T00:39:55.297Z,16.4
2018-12-03T00:41:01.885Z,16.5
2018-12-03T00:42:03.309Z,16.4
2018-12-03T00:43:04.604Z,16.4
2018-12-03T00:44:05.920Z,16.5
2018-12-03T00:45:07.302Z,16.3
2018-12-03T00:46:08.793Z,16.4
2018-12-03T00:47:10.102Z,16.3
2018-12-03T00:48:11.370Z,16.3
2018-12-03T00:49:12.659Z,16.3
2018-12-03T00:50:13.991Z,16.4
2018-12-03T00:51:15.310Z,16.3
2018-12-03T00:52:16.671Z,16.3
2018-12-03T00:53:18.013Z,16.4
2018-12-03T00:54:19.336Z,16.3
2018-12-03T00:55:20.610Z,16.5
2018-12-03T00:56:21.921Z,16.5
2018-12-03T00:57:23.318Z,16.3
2018-12-03T00:58:25.006Z,16.4
2018-12-03T00:59:26.834Z,16.2
2018-12-03T01:00:28.158Z,16.3
2018-12-03T01:01:29.449Z,16.4
2018-12-03T01:02:30.793Z,16.4
2018-12-03T01:03:32.073Z,16.6
2018-12-03T01:04:33.371Z,16.5
2018-12-03T01:05:34.655Z,16.4
2018-12-03T01:06:35.957Z,16.4
2018-12-03T01:07:37.296Z,16.4
2018-12-03T01:08:38.579Z,16.4
2018-12-03T01:09:39.906Z,16.5
2018-12-03T01:10:41.211Z,16.4
2018-12-03T01:11:42.725Z,16.5
2018-12-03T01:12:47.037Z,16.4
2018-12-03T01:13:51.156Z,16.5
2018-12-03T01:14:52.463Z,16.6
2018-12-03T01:15:58.351Z,16.5
2018-12-03T01:16:59.667Z,16.5
2018-12-03T01:18:01.265Z,16.5
2018-12-03T01:19:02.584Z,16.5
2018-12-03T01:20:03.893Z,16.4
2018-12-03T01:21:05.174Z,16.3
2018-12-03T01:22:06.482Z,16.3
2018-12-03T01:23:07.806Z,16.4
2018-12-03T01:24:09.313Z,16.4
2018-12-03T01:25:13.881Z,16.3
2018-12-03T01:26:15.171Z,16.4
2018-12-03T01:27:19.537Z,16.4
2018-12-03T01:28:20.933Z,16.3
2018-12-03T01:29:25.273Z,16.3
2018-12-03T01:30:26.577Z,16.3
2018-12-03T01:31:27.860Z,16.2
2018-12-03T01:32:29.170Z,16.2
2018-12-03T01:33:30.571Z,16.2
2018-12-03T01:34:32.180Z,16.2
2018-12-03T01:35:33.480Z,16.1
2018-12-03T01:36:34.769Z,16.2
2018-12-03T01:37:49.947Z,16.2
2018-12-03T01:38:54.381Z,16.3
2018-12-03T01:39:55.687Z,16.3
2018-12-03T01:40:58.611Z,16.3
2018-12-03T01:41:59.895Z,16.3
2018-12-03T01:43:01.227Z,16.3
2018-12-03T01:44:02.554Z,16.2
2018-12-03T01:45:03.919Z,16.1
2018-12-03T01:46:05.226Z,16.2
2018-12-03T01:47:06.539Z,16.2
2018-12-03T01:48:12.404Z,16.4
2018-12-03T01:49:16.449Z,16.4
2018-12-03T01:50:17.783Z,16.4
2018-12-03T01:51:21.948Z,16.2
2018-12-03T01:52:23.236Z,16.2
2018-12-03T01:53:24.577Z,16.2
2018-12-03T01:54:25.934Z,16.2
2018-12-03T01:55:27.287Z,16.3
2018-12-03T01:56:28.577Z,16.3
2018-12-03T01:57:29.888Z,16.2
2018-12-03T01:58:31.193Z,16.2
2018-12-03T01:59:32.529Z,16.2
2018-12-03T02:00:33.802Z,16.1
2018-12-03T02:01:42.933Z,16.1
2018-12-03T02:02:45.114Z,16.2
2018-12-03T02:03:46.396Z,16.2
2018-12-03T02:04:47.738Z,16.1
2018-12-03T02:05:49.036Z,16.1
2018-12-03T02:06:50.340Z,16.2
2018-12-03T02:07:51.648Z,16
2018-12-03T02:08:56.416Z,16.1
2018-12-03T02:09:57.746Z,16.1
2018-12-03T02:10:59.033Z,16.2
2018-12-03T02:12:00.311Z,16.2
2018-12-03T02:13:01.634Z,16.2
2018-12-03T02:14:02.961Z,16.2
2018-12-03T02:15:04.288Z,16.2
2018-12-03T02:16:05.565Z,16.2
2018-12-03T02:17:06.840Z,16
2018-12-03T02:18:08.152Z,16
2018-12-03T02:19:09.482Z,16.1
2018-12-03T02:20:11.101Z,16.1
2018-12-03T02:21:12.447Z,16.1
2018-12-03T02:22:13.738Z,16
2018-12-03T02:23:15.052Z,16
2018-12-03T02:24:16.333Z,16
2018-12-03T02:25:17.724Z,16
2018-12-03T02:26:21.976Z,16.1
2018-12-03T02:27:23.649Z,16.1
2018-12-03T02:28:25.172Z,16.1
2018-12-03T02:29:26.571Z,16.1
2018-12-03T02:30:27.918Z,16.2
2018-12-03T02:31:29.266Z,16.1
2018-12-03T02:32:30.564Z,16.1
2018-12-03T02:33:31.864Z,16.1
2018-12-03T02:34:33.191Z,16
2018-12-03T02:35:34.528Z,15.9
2018-12-03T02:36:35.818Z,16
2018-12-03T02:37:37.100Z,16
2018-12-03T02:38:38.414Z,16.1
2018-12-03T02:39:39.689Z,16
2018-12-03T02:40:41.016Z,16
2018-12-03T02:41:42.404Z,15.8
2018-12-03T02:42:43.700Z,16
2018-12-03T02:43:44.990Z,15.9
2018-12-03T02:44:46.274Z,16
2018-12-03T02:45:47.596Z,16
2018-12-03T02:46:48.879Z,16
2018-12-03T02:47:50.156Z,16.1
2018-12-03T02:48:51.465Z,16.1
2018-12-03T02:49:52.797Z,16.1
2018-12-03T02:50:54.421Z,16
2018-12-03T02:51:55.824Z,16
2018-12-03T02:52:57.206Z,16
2018-12-03T02:53:58.719Z,15.9
2018-12-03T02:55:00.073Z,15.8
2018-12-03T02:56:01.521Z,15.9
2018-12-03T02:57:02.805Z,15.9
2018-12-03T02:58:04.097Z,16
2018-12-03T02:59:05.401Z,15.9
2018-12-03T03:00:06.693Z,15.9
2018-12-03T03:01:08.118Z,15.9
2018-12-03T03:02:09.397Z,15.9
2018-12-03T03:03:10.688Z,15.9
2018-12-03T03:04:11.985Z,15.9
2018-12-03T03:05:13.270Z,15.9
2018-12-03T03:06:14.615Z,16
2018-12-03T03:07:15.897Z,16
2018-12-03T03:08:17.196Z,16
2018-12-03T03:09:18.515Z,15.9
2018-12-03T03:10:19.847Z,15.9
2018-12-03T03:11:24.652Z,15.8
2018-12-03T03:12:26.053Z,15.9
2018-12-03T03:13:27.336Z,15.8
2018-12-03T03:14:28.617Z,15.8
2018-12-03T03:15:30.187Z,15.9
2018-12-03T03:16:31.716Z,15.9
2018-12-03T03:17:33.037Z,16
2018-12-03T03:18:34.317Z,16
2018-12-03T03:19:35.625Z,15.9
2018-12-03T03:20:36.937Z,15.9
2018-12-03T03:21:38.253Z,15.9
2018-12-03T03:22:39.585Z,15.9
2018-12-03T03:23:43.245Z,15.9
2018-12-03T03:24:44.539Z,15.9
2018-12-03T03:25:45.889Z,15.9
2018-12-03T03:26:47.223Z,15.9
2018-12-03T03:27:48.933Z,15.9
2018-12-03T03:28:50.203Z,15.8
2018-12-03T03:29:51.545Z,15.7
2018-12-03T03:30:52.845Z,15.8
2018-12-03T03:31:54.181Z,15.9
2018-12-03T03:32:55.483Z,16
2018-12-03T03:33:56.961Z,15.9
2018-12-03T03:34:58.273Z,15.8
2018-12-03T03:35:59.659Z,15.7
2018-12-03T03:37:01.577Z,15.7
2018-12-03T03:38:03.034Z,15.8
2018-12-03T03:39:04.490Z,15.7
2018-12-03T03:40:05.968Z,15.8
2018-12-03T03:41:07.451Z,15.9
2018-12-03T03:42:08.883Z,15.9
2018-12-03T03:43:10.266Z,15.9
2018-12-03T03:44:11.730Z,15.9
2018-12-03T03:45:13.277Z,15.8
2018-12-03T03:46:14.792Z,15.9
2018-12-03T03:47:16.284Z,15.9
2018-12-03T03:48:17.784Z,15.7
2018-12-03T03:49:19.285Z,15.8
2018-12-03T03:50:20.707Z,15.8
2018-12-03T03:51:22.139Z,15.8
2018-12-03T03:52:23.678Z,15.8
2018-12-03T03:53:25.430Z,15.8
2018-12-03T03:54:27.107Z,15.8
2018-12-03T03:55:28.803Z,15.7
2018-12-03T03:56:30.322Z,15.8
2018-12-03T03:57:31.798Z,15.7
2018-12-03T03:58:33.637Z,15.8
2018-12-03T03:59:35.021Z,15.6
2018-12-03T04:00:36.519Z,15.7
2018-12-03T04:01:39.204Z,15.7
2018-12-03T04:02:42.028Z,15.7
2018-12-03T04:03:43.481Z,15.8
2018-12-03T04:04:44.922Z,15.7
2018-12-03T04:05:46.366Z,15.7
2018-12-03T04:06:47.875Z,15.7
2018-12-03T04:07:49.436Z,15.8
2018-12-03T04:08:50.881Z,15.7
2018-12-03T04:09:53.419Z,15.7
2018-12-03T04:10:54.952Z,15.7
2018-12-03T04:11:56.370Z,15.7
2018-12-03T04:12:57.933Z,15.6
2018-12-03T04:14:02.044Z,15.6
2018-12-03T04:15:03.566Z,15.7
2018-12-03T04:16:05.020Z,15.6
2018-12-03T04:17:06.413Z,15.7
2018-12-03T04:18:07.942Z,15.8
2018-12-03T04:19:09.407Z,15.7
2018-12-03T04:20:10.870Z,15.8
2018-12-03T04:21:12.376Z,15.8
2018-12-03T04:22:14.116Z,15.8
2018-12-03T04:23:15.993Z,15.9
2018-12-03T04:24:18.496Z,15.8
2018-12-03T04:25:19.994Z,15.7
2018-12-03T04:26:21.770Z,15.7
2018-12-03T04:27:23.215Z,15.8
2018-12-03T04:28:24.763Z,15.7
2018-12-03T04:29:26.266Z,15.6
2018-12-03T04:30:27.828Z,15.7
2018-12-03T04:31:29.254Z,15.8
2018-12-03T04:32:30.686Z,15.7
2018-12-03T04:33:32.202Z,15.8
2018-12-03T04:34:34.691Z,15.7
2018-12-03T04:35:36.178Z,15.7
2018-12-03T04:36:37.664Z,15.7
2018-12-03T04:37:39.111Z,15.7
2018-12-03T04:38:45.668Z,15.8
2018-12-03T04:39:47.084Z,15.8
2018-12-03T04:40:48.557Z,15.8
2018-12-03T04:41:55.045Z,15.7
2018-12-03T04:42:57.835Z,15.6
2018-12-03T04:43:59.322Z,15.8
2018-12-03T04:45:04.760Z,15.7
2018-12-03T04:46:06.202Z,15.7
2018-12-03T04:47:07.936Z,15.7
2018-12-03T04:48:14.047Z,15.7
2018-12-03T04:50:38.052Z,15.6
2018-12-03T04:51:43.647Z,15.8
2018-12-03T04:52:45.109Z,15.7
2018-12-03T04:53:46.602Z,15.6
2018-12-03T04:54:48.150Z,15.6
2018-12-03T04:55:49.581Z,15.6
2018-12-03T04:56:51.055Z,15.6
2018-12-03T04:57:53.439Z,15.6
2018-12-03T04:58:54.944Z,15.6
2018-12-03T04:59:56.534Z,15.6
2018-12-03T05:00:58.208Z,15.6
2018-12-03T05:02:01.133Z,15.6
2018-12-03T05:03:02.933Z,15.6
2018-12-03T05:04:04.405Z,15.6
2018-12-03T05:05:05.899Z,15.7
2018-12-03T05:06:07.434Z,15.8
2018-12-03T05:07:08.811Z,15.7
2018-12-03T05:08:10.913Z,15.7
2018-12-03T05:09:15.025Z,15.7
2018-12-03T05:10:16.666Z,15.6
2018-12-03T05:11:17.974Z,15.7
2018-12-03T05:12:19.254Z,15.7
2018-12-03T05:13:20.545Z,15.7
2018-12-03T05:14:21.882Z,15.6
2018-12-03T05:15:23.279Z,15.6
2018-12-03T05:16:24.558Z,15.5
2018-12-03T05:17:25.856Z,15.5
2018-12-03T05:18:27.765Z,15.6
2018-12-03T05:19:29.093Z,15.5
2018-12-03T05:20:30.473Z,15.6
2018-12-03T05:21:31.760Z,15.6
2018-12-03T05:22:33.071Z,15.4
2018-12-03T05:23:34.403Z,15.5
2018-12-03T05:24:35.760Z,15.6
2018-12-03T05:25:37.402Z,15.6
2018-12-03T05:26:38.690Z,15.6
2018-12-03T05:27:39.983Z,15.6
2018-12-03T05:28:41.346Z,15.5
2018-12-03T05:29:44.637Z,15.5
2018-12-03T05:30:46.125Z,15.6
2018-12-03T05:31:47.421Z,15.6
2018-12-03T05:32:48.736Z,15.6
2018-12-03T05:33:50.059Z,15.6
2018-12-03T05:34:51.350Z,15.7
2018-12-03T05:35:52.728Z,15.6
2018-12-03T05:36:54.087Z,15.5
2018-12-03T05:37:55.400Z,15.6
2018-12-03T05:38:56.751Z,15.6
2018-12-03T05:39:58.202Z,15.6
2018-12-03T05:41:00.914Z,15.6
2018-12-03T05:42:02.294Z,15.6
2018-12-03T05:43:03.601Z,15.6
2018-12-03T05:44:04.908Z,15.7
2018-12-03T05:45:06.320Z,15.6
2018-12-03T05:46:07.630Z,15.6
2018-12-03T05:47:08.925Z,15.7
2018-12-03T05:48:10.230Z,15.7
2018-12-03T05:49:11.674Z,15.6
2018-12-03T05:50:14.344Z,15.5
2018-12-03T05:51:15.710Z,15.5
2018-12-03T05:52:17.250Z,15.7
2018-12-03T05:53:18.531Z,15.7
2018-12-03T05:54:19.873Z,15.6
2018-12-03T05:55:21.202Z,15.6
2018-12-03T05:56:22.854Z,15.5
2018-12-03T05:57:24.137Z,15.5
2018-12-03T05:58:25.421Z,15.4
2018-12-03T05:59:26.764Z,15.5
2018-12-03T06:00:28.681Z,15.4
2018-12-03T06:01:30.046Z,15.5
2018-12-03T06:02:31.386Z,15.6
2018-12-03T06:03:32.665Z,15.6
2018-12-03T06:04:33.963Z,15.5
2018-12-03T06:05:35.298Z,15.6
2018-12-03T06:06:36.922Z,15.6
2018-12-03T06:07:43.758Z,15.7
2018-12-03T06:08:46.427Z,15.6
2018-12-03T06:09:48.167Z,15.6
2018-12-03T06:10:49.480Z,15.6
2018-12-03T06:11:51.313Z,15.6
2018-12-03T06:12:52.650Z,15.7
2018-12-03T06:13:53.965Z,15.6
2018-12-03T06:14:55.273Z,15.6
2018-12-03T06:15:56.670Z,15.6
2018-12-03T06:16:57.992Z,15.6
2018-12-03T06:17:59.281Z,15.6
2018-12-03T06:19:00.825Z,15.6
2018-12-03T06:20:02.159Z,15.6
2018-12-03T06:21:03.516Z,15.5
2018-12-03T06:22:04.941Z,15.6
2018-12-03T06:23:06.353Z,15.7
2018-12-03T06:24:16.485Z,15.6
2018-12-03T06:25:17.797Z,15.5
2018-12-03T06:26:19.161Z,15.5
2018-12-03T06:27:20.521Z,15.5
2018-12-03T06:28:23.818Z,15.6
2018-12-03T06:29:27.535Z,15.5
2018-12-03T06:30:28.869Z,15.5
2018-12-03T06:31:33.342Z,15.4
2018-12-03T06:32:34.721Z,16
2018-12-03T06:33:36.201Z,16.5
2018-12-03T06:34:37.727Z,17
2018-12-03T06:35:39.357Z,17.3
2018-12-03T06:36:40.728Z,17.5
2018-12-03T06:37:49.821Z,17.5
2018-12-03T06:38:51.140Z,17.6
2018-12-03T06:39:52.465Z,17.6
2018-12-03T06:40:53.879Z,17.7
2018-12-03T06:41:55.262Z,17.8
2018-12-03T06:42:56.682Z,17.8
2018-12-03T06:43:58.031Z,17.8
2018-12-03T06:44:59.363Z,17.8
2018-12-03T06:46:07.997Z,17.8
2018-12-03T06:47:09.692Z,17.9
2018-12-03T06:48:11.608Z,17.9
2018-12-03T06:49:13.131Z,17.9
2018-12-03T06:50:14.466Z,17.8
2018-12-03T06:51:15.915Z,18
2018-12-03T06:52:17.469Z,18.1
2018-12-03T06:53:18.882Z,18.1
2018-12-03T06:54:20.724Z,18.1
2018-12-03T06:55:22.119Z,18.2
2018-12-03T06:56:23.813Z,18.2
2018-12-03T06:57:25.463Z,18.1
2018-12-03T06:58:27.277Z,18.3
2018-12-03T06:59:28.741Z,18.2
2018-12-03T07:00:30.082Z,18.1
2018-12-03T07:01:31.440Z,18.1
2018-12-03T07:02:32.837Z,18.2
2018-12-03T07:03:34.336Z,18.2
2018-12-03T07:04:35.732Z,18.1
2018-12-03T07:05:37.215Z,18.2
2018-12-03T07:06:38.579Z,18.3
2018-12-03T07:07:46.631Z,18.2
2018-12-03T07:08:51.283Z,18.3
2018-12-03T07:09:52.688Z,18.4
2018-12-03T07:10:54.120Z,18.4
2018-12-03T07:11:56.518Z,18.3
2018-12-03T07:12:57.923Z,18.3
2018-12-03T07:13:59.452Z,18.3
2018-12-03T07:15:00.774Z,18.4
2018-12-03T07:16:02.520Z,18.5
2018-12-03T07:17:03.995Z,18.4
2018-12-03T07:18:05.405Z,18.5
2018-12-03T07:19:06.828Z,18.4
2018-12-03T07:20:08.171Z,18.5
2018-12-03T07:21:09.573Z,18.5
2018-12-03T07:22:11.074Z,18.6
2018-12-03T07:23:16.334Z,18.6
2018-12-03T07:24:17.760Z,18.7
2018-12-03T07:25:19.305Z,18.7
2018-12-03T07:26:20.730Z,18.6
2018-12-03T07:27:22.306Z,18.7
2018-12-03T07:28:25.187Z,18.8
2018-12-03T07:29:26.587Z,18.9
2018-12-03T07:30:32.024Z,18.8
2018-12-03T07:31:33.467Z,18.8
2018-12-03T07:32:34.833Z,18.8
2018-12-03T07:33:40.645Z,18.8
2018-12-03T07:34:44.043Z,18.8
2018-12-03T07:35:45.386Z,18.9
2018-12-03T07:36:47.837Z,18.9
2018-12-03T07:37:52.325Z,18.9
2018-12-03T07:38:53.662Z,18.9
2018-12-03T07:39:55.121Z,18.8
2018-12-03T07:40:59.559Z,19
2018-12-03T07:42:00.954Z,18.9
2018-12-03T07:43:02.391Z,18.9
2018-12-03T07:44:03.762Z,18.9
2018-12-03T07:45:05.184Z,18.9
2018-12-03T07:46:08.390Z,18.8
2018-12-03T07:47:10.260Z,18.9
2018-12-03T07:48:11.641Z,18.9
2018-12-03T07:49:12.959Z,18.9
2018-12-03T07:50:14.522Z,19
2018-12-03T07:51:16.005Z,19
2018-12-03T07:52:17.446Z,19
2018-12-03T07:53:18.847Z,19.1
2018-12-03T07:54:20.243Z,19.1
2018-12-03T07:55:21.646Z,19.1
2018-12-03T07:56:23.067Z,19.1
2018-12-03T07:57:24.528Z,19
2018-12-03T07:58:26.022Z,19
2018-12-03T07:59:27.524Z,19.1
2018-12-03T08:00:29.609Z,19.1
2018-12-03T08:01:32.772Z,19
2018-12-03T08:02:34.488Z,19.1
2018-12-03T08:03:35.823Z,19.1
2018-12-03T08:04:37.465Z,19.1
2018-12-03T08:05:38.950Z,19.1
2018-12-03T08:06:40.338Z,19.1
2018-12-03T08:07:41.805Z,19.2
2018-12-03T08:08:43.141Z,19.1
2018-12-03T08:09:44.478Z,19.1
2018-12-03T08:10:45.917Z,19
2018-12-03T08:11:48.726Z,19.1
2018-12-03T08:12:50.051Z,19.2
2018-12-03T08:13:51.497Z,19.1
2018-12-03T08:14:53.279Z,19.2
2018-12-03T08:15:58.292Z,19.1
2018-12-03T08:17:01.174Z,19.2
2018-12-03T08:18:02.489Z,19.2
2018-12-03T08:19:05.119Z,19.2
2018-12-03T08:20:06.453Z,19.2
2018-12-03T08:21:07.821Z,19.2
2018-12-03T08:22:09.648Z,19.2
2018-12-03T08:23:10.986Z,19.2
2018-12-03T08:24:12.308Z,19.2
2018-12-03T08:25:15.200Z,19.2
2018-12-03T08:26:16.735Z,19.2
2018-12-03T08:27:18.308Z,19.1
2018-12-03T08:28:21.961Z,19.3
2018-12-03T08:29:23.479Z,19.4
2018-12-03T08:30:25.507Z,19.3
2018-12-03T08:31:27.614Z,19.1
2018-12-03T08:32:28.956Z,19.3
2018-12-03T08:33:30.494Z,19.4
2018-12-03T08:34:33.332Z,19.4
2018-12-03T08:35:34.694Z,19.5
2018-12-03T08:36:36.587Z,19.5
2018-12-03T08:37:46.333Z,19.5
2018-12-03T08:38:48.561Z,19.5
2018-12-03T08:39:49.990Z,19.4
2018-12-03T08:40:51.557Z,19.4
2018-12-03T08:41:53.130Z,19.3
2018-12-03T08:42:54.462Z,19.4
2018-12-03T08:43:58.021Z,19.5
2018-12-03T08:44:59.445Z,19.4
2018-12-03T08:46:00.873Z,19.4
2018-12-03T08:47:02.349Z,19.4
2018-12-03T08:48:03.772Z,19.5
2018-12-03T08:49:05.344Z,19.5
2018-12-03T08:50:09.456Z,19.5
2018-12-03T08:51:13.407Z,19.5
2018-12-03T08:52:18.553Z,19.5
2018-12-03T08:53:21.736Z,19.5
2018-12-03T08:54:27.564Z,19.6
2018-12-03T08:55:29.586Z,19.5
2018-12-03T08:56:33.721Z,19.5
2018-12-03T08:57:35.378Z,19.4
2018-12-03T08:58:39.361Z,19.4
2018-12-03T08:59:41.073Z,19.4
2018-12-03T09:00:42.651Z,19.4
2018-12-03T09:01:46.466Z,19.4
2018-12-03T09:02:48.222Z,19.4
2018-12-03T09:03:50.788Z,19.5
2018-12-03T09:04:57.830Z,19.6
2018-12-03T09:06:09.430Z,19.6
2018-12-03T09:07:12.338Z,19.6
2018-12-03T09:08:14.680Z,19.6
2018-12-03T09:09:18.173Z,19.6
2018-12-03T09:10:22.959Z,19.6
2018-12-03T09:11:24.333Z,19.6
2018-12-03T09:12:28.505Z,19.6
2018-12-03T09:13:30.207Z,19.7
2018-12-03T09:14:32.727Z,19.7
2018-12-03T09:15:34.611Z,19.6
2018-12-03T09:16:37.326Z,19.6
2018-12-03T09:17:39.197Z,19.6
2018-12-03T09:18:40.776Z,19.7
2018-12-03T09:19:42.518Z,19.7
2018-12-03T09:20:44.331Z,19.7
2018-12-03T09:21:52.365Z,19.5
2018-12-03T09:22:53.923Z,19.7
2018-12-03T09:24:01.571Z,19.9
2018-12-03T09:25:02.924Z,19.9
2018-12-03T09:26:04.467Z,19.9
2018-12-03T09:27:07.058Z,19.9
2018-12-03T09:28:08.385Z,19.9
2018-12-03T09:29:09.787Z,19.9
2018-12-03T09:30:11.219Z,19.9
2018-12-03T09:31:12.688Z,19.9
2018-12-03T09:32:14.320Z,19.9
2018-12-03T09:33:15.841Z,19.9
2018-12-03T09:34:17.292Z,19.9
2018-12-03T09:35:21.805Z,19.9
2018-12-03T09:36:26.233Z,19.8
2018-12-03T09:37:27.976Z,19.7
2018-12-03T09:38:34.648Z,19.9
2018-12-03T09:39:37.511Z,19.8
2018-12-03T09:40:45.597Z,19.7
2018-12-03T09:41:48.633Z,19.7
2018-12-03T09:42:50.608Z,19.7
2018-12-03T09:43:52.737Z,19.6
2018-12-03T09:44:57.695Z,19.7
2018-12-03T09:46:01.929Z,19.7
2018-12-03T09:47:04.163Z,19.8
2018-12-03T09:48:07.168Z,19.8
2018-12-03T09:49:10.005Z,19.8
2018-12-03T09:50:11.757Z,19.7
2018-12-03T09:51:13.133Z,19.6
2018-12-03T09:52:15.694Z,19.8
2018-12-03T09:53:17.451Z,19.8
2018-12-03T09:54:18.885Z,19.8
2018-12-03T09:55:21.406Z,19.8
2018-12-03T09:56:24.444Z,19.8
2018-12-03T09:57:27.217Z,19.8
2018-12-03T09:58:28.815Z,19.8
2018-12-03T09:59:30.662Z,19.8
2018-12-03T10:00:35.424Z,19.7
2018-12-03T10:01:38.457Z,19.7
2018-12-03T10:02:40.090Z,19.8
2018-12-03T10:03:42.202Z,19.8
2018-12-03T10:04:43.947Z,19.7
2018-12-03T10:05:45.565Z,19.8
2018-12-03T10:06:46.995Z,19.8
2018-12-03T10:07:48.435Z,19.8
2018-12-03T10:08:49.853Z,19.9
2018-12-03T10:09:51.501Z,19.8
2018-12-03T10:10:59.018Z,19.8
2018-12-03T10:12:03.707Z,19.9
2018-12-03T10:13:05.296Z,19.8
2018-12-03T10:14:07.173Z,19.7
2018-12-03T10:15:09.535Z,19.8
2018-12-03T10:16:14.624Z,19.8
2018-12-03T10:17:19.121Z,19.7
2018-12-03T10:18:26.385Z,19.8
2018-12-03T10:19:31.016Z,19.8
2018-12-03T10:20:35.656Z,19.6
2018-12-03T10:21:43.181Z,19.8
2018-12-03T10:22:45.178Z,19.8
2018-12-03T10:23:47.638Z,19.9
2018-12-03T10:24:50.273Z,19.9
2018-12-03T10:25:53.176Z,19.9
2018-12-03T10:26:57.144Z,19.9
2018-12-03T10:27:58.656Z,19.9
2018-12-03T10:29:02.434Z,19.9
2018-12-03T10:30:08.336Z,19.8
2018-12-03T10:31:10.995Z,19.9
2018-12-03T10:32:12.518Z,19.9
2018-12-03T10:33:14.095Z,20
2018-12-03T10:34:15.580Z,20
2018-12-03T10:35:26.315Z,20
2018-12-03T10:36:28.617Z,20
2018-12-03T10:37:30.526Z,19.9
2018-12-03T10:38:34.942Z,20
2018-12-03T10:39:36.539Z,20
2018-12-03T10:40:44.700Z,20
2018-12-03T10:41:46.626Z,20
2018-12-03T10:42:51.441Z,20.1
2018-12-03T10:43:53.033Z,20
2018-12-03T10:44:58.906Z,20.1
2018-12-03T10:46:00.408Z,20
2018-12-03T10:47:01.767Z,20
2018-12-03T10:48:07.268Z,20
2018-12-03T10:49:08.703Z,20
2018-12-03T10:50:12.312Z,20.1
2018-12-03T10:51:15.595Z,20.1
2018-12-03T10:52:24.832Z,20.1
2018-12-03T10:53:27.445Z,20.1
2018-12-03T10:54:43.160Z,20.1
2018-12-03T10:55:45.011Z,20.2
2018-12-03T10:56:46.844Z,20.2
2018-12-03T10:57:51.533Z,20.2
2018-12-03T10:58:53.229Z,20.3
2018-12-03T10:59:54.821Z,20.3
2018-12-03T11:00:56.458Z,20.2
2018-12-03T11:01:58.488Z,20.3
2018-12-03T11:03:02.846Z,20.3
2018-12-03T11:04:04.297Z,20.3
2018-12-03T11:05:06.008Z,20.3
2018-12-03T11:06:07.350Z,20.4
2018-12-03T11:07:09.995Z,20.4
2018-12-03T11:08:13.821Z,20.4
2018-12-03T11:09:26.267Z,20.3
2018-12-03T11:10:34.477Z,20.2
2018-12-03T11:11:36.086Z,20.4
2018-12-03T11:12:38.377Z,20.3
2018-12-03T11:13:40.293Z,20.4
2018-12-03T11:14:41.677Z,20.4
2018-12-03T11:15:48.473Z,20.4
2018-12-03T11:16:49.832Z,20.4
2018-12-03T11:17:53.727Z,20.4
2018-12-03T11:18:57.725Z,20.4
2018-12-03T11:20:01.742Z,20.4
2018-12-03T11:21:03.157Z,20.4
2018-12-03T11:22:04.937Z,20.5
2018-12-03T11:23:06.469Z,20.6
2018-12-03T11:24:07.912Z,20.7
2018-12-03T11:25:09.321Z,20.7
2018-12-03T11:26:11.957Z,20.7
2018-12-03T11:27:14.813Z,20.6
2018-12-03T11:28:18.746Z,20.6
2018-12-03T11:29:20.386Z,20.6
2018-12-03T11:30:24.570Z,20.6
2018-12-03T11:31:32.042Z,20.5
2018-12-03T11:32:33.608Z,20.6
2018-12-03T11:33:36.359Z,20.6
2018-12-03T11:34:38.999Z,20.5
2018-12-03T11:35:45.530Z,20.6
2018-12-03T11:36:47.947Z,20.6
2018-12-03T11:37:51.848Z,20.7
2018-12-03T11:38:53.364Z,20.5
2018-12-03T11:39:55.102Z,20.5
2018-12-03T11:40:56.746Z,20.5
2018-12-03T11:42:00.528Z,20.5
2018-12-03T11:43:04.797Z,20.5
2018-12-03T11:44:09.197Z,20.5
2018-12-03T11:45:13.642Z,20.5
2018-12-03T11:46:15.493Z,20.5
2018-12-03T11:47:24.137Z,20.6
2018-12-03T11:48:28.229Z,20.6
2018-12-03T11:49:29.708Z,20.5
2018-12-03T11:50:31.264Z,20.5
2018-12-03T11:51:32.762Z,20.4
2018-12-03T11:52:39.017Z,20.5
2018-12-03T11:53:40.372Z,20.5
2018-12-03T11:54:41.725Z,20.5
2018-12-03T11:55:43.111Z,20.5
2018-12-03T11:56:45.135Z,20.3
2018-12-03T11:57:49.376Z,20.5
2018-12-03T11:58:56.966Z,20.6
2018-12-03T11:59:58.329Z,20.6
2018-12-03T12:01:03.264Z,20.5
2018-12-03T12:02:04.706Z,20.6
2018-12-03T12:03:06.134Z,20.6
2018-12-03T12:04:07.571Z,20.6
2018-12-03T12:05:09.002Z,20.6
2018-12-03T12:06:10.343Z,20.5
2018-12-03T12:07:14.625Z,20.5
2018-12-03T12:08:16.695Z,20.6
2018-12-03T12:09:21.331Z,20.5
2018-12-03T12:10:22.812Z,20.5
2018-12-03T12:11:30.056Z,20.4
2018-12-03T12:12:31.832Z,20.5
2018-12-03T12:13:33.462Z,20.5
2018-12-03T12:14:34.989Z,20.5
2018-12-03T12:15:36.633Z,20.6
2018-12-03T12:16:38.884Z,20.4
2018-12-03T12:17:41.054Z,20.5
2018-12-03T12:18:42.549Z,20.5
2018-12-03T12:19:50.521Z,20.5
2018-12-03T12:20:59.024Z,20.5
2018-12-03T12:22:00.325Z,20.6
2018-12-03T12:23:01.662Z,20.6
2018-12-03T12:24:05.116Z,20.6
2018-12-03T12:25:30.623Z,20.5
2018-12-03T12:26:35.829Z,20.5
2018-12-03T12:27:37.356Z,20.5
2018-12-03T12:28:38.724Z,20.6
2018-12-03T12:29:43.167Z,20.5
2018-12-03T12:30:45.564Z,20.6
2018-12-03T12:33:10.211Z,20.6
2018-12-03T12:34:11.591Z,20.6
2018-12-03T12:35:12.872Z,20.6
2018-12-03T12:36:14.167Z,20.6
2018-12-03T12:37:15.460Z,20.6
2018-12-03T12:38:18.985Z,20.6
2018-12-03T12:39:20.322Z,20.6
2018-12-03T12:40:21.637Z,20.6
2018-12-03T12:41:25.307Z,20.5
2018-12-03T12:42:29.352Z,20.5
2018-12-03T12:43:47.043Z,20.5
2018-12-03T12:44:51.173Z,20.6
2018-12-03T12:45:52.503Z,20.5
2018-12-03T12:46:56.302Z,20.5
2018-12-03T12:47:57.575Z,20.5
2018-12-03T12:48:58.858Z,20.5
2018-12-03T12:50:00.199Z,20.6
2018-12-03T12:51:01.584Z,20.5
2018-12-03T12:52:02.938Z,20.5
2018-12-03T12:53:04.235Z,20.6
2018-12-03T12:54:05.586Z,20.6
2018-12-03T12:55:09.000Z,20.6
2018-12-03T12:56:10.348Z,20.5
2018-12-03T12:57:11.702Z,20.4
2018-12-03T12:58:13.583Z,20.3
2018-12-03T12:59:17.216Z,20.5
2018-12-03T13:00:19.378Z,20.5
2018-12-03T13:01:20.694Z,20.5
2018-12-03T13:03:50.548Z,20.5
2018-12-03T13:04:51.862Z,20.5
2018-12-03T13:05:53.295Z,20.5
2018-12-03T13:06:54.631Z,20.4
2018-12-03T13:07:56.047Z,20.5
2018-12-03T13:08:57.353Z,20.5
2018-12-03T13:09:58.697Z,20.5
2018-12-03T13:11:00.077Z,20.4
2018-12-03T13:12:01.395Z,20.5
2018-12-03T13:13:08.579Z,20.5
2018-12-03T13:14:09.853Z,20.5
2018-12-03T13:15:11.140Z,20.6
2018-12-03T13:16:12.604Z,20.5
2018-12-03T13:17:14.107Z,20.6
2018-12-03T13:18:16.295Z,20.6
2018-12-03T13:19:19.151Z,20.5
2018-12-03T13:20:20.489Z,20.5
2018-12-03T13:21:21.799Z,20.5
2018-12-03T13:22:23.204Z,20.6
2018-12-03T13:23:24.556Z,20.5
2018-12-03T13:24:25.837Z,20.6
2018-12-03T13:25:27.316Z,20.5
2018-12-03T13:26:29.119Z,20.5
2018-12-03T13:27:30.391Z,20.6
2018-12-03T13:28:31.718Z,20.5
2018-12-03T13:29:33.060Z,20.5
2018-12-03T13:30:35.367Z,20.5
2018-12-03T13:31:39.081Z,20.6
2018-12-03T13:32:40.580Z,20.4
2018-12-03T13:33:44.096Z,20.6
2018-12-03T13:34:45.397Z,20.6
2018-12-03T13:35:48.993Z,20.6
2018-12-03T13:36:50.373Z,20.7
2018-12-03T13:37:51.653Z,20.7
2018-12-03T13:38:54.638Z,20.6
2018-12-03T13:39:56.801Z,20.7
2018-12-03T13:41:00.310Z,20.7
2018-12-03T13:42:01.979Z,20.7
2018-12-03T13:43:03.645Z,20.6
2018-12-03T13:44:05.874Z,20.7
2018-12-03T13:45:07.376Z,20.5
2018-12-03T13:46:11.210Z,20.7
2018-12-03T13:47:13.801Z,20.6
2018-12-03T13:48:15.130Z,20.5
2018-12-03T13:49:18.980Z,20.5
2018-12-03T13:50:20.254Z,20.6
2018-12-03T13:51:23.651Z,20.6
2018-12-03T13:52:27.411Z,20.6
2018-12-03T13:53:31.370Z,20.5
2018-12-03T13:54:32.663Z,20.6
2018-12-03T13:55:34.243Z,20.4
2018-12-03T13:56:38.552Z,20.6
2018-12-03T13:57:39.937Z,20.6